createdAt,value
2022-11-06T00:13:09.253Z,954.79
2022-11-06T00:28:11.562Z,954.99
2022-11-06T00:43:13.599Z,954.97
2022-11-06T00:58:15.803Z,955.08
2022-11-06T01:13:17.903Z,955.31
2022-11-06T01:28:19.778Z,955.57
2022-11-06T01:43:21.667Z,955.8
2022-11-06T01:58:23.682Z,956.02
2022-11-06T02:13:25.724Z,956.27
2022-11-06T02:28:27.639Z,956.34
2022-11-06T02:43:29.515Z,956.55
2022-11-06T02:58:31.551Z,956.47
2022-11-06T03:13:33.472Z,956.94
2022-11-06T03:28:35.391Z,957.02
2022-11-06T03:43:37.367Z,957.31
2022-11-06T03:58:39.330Z,957.5
2022-11-06T04:13:41.264Z,957.73
2022-11-06T04:28:43.200Z,957.9
2022-11-06T04:43:45.141Z,958.09
2022-11-06T04:58:47.070Z,958.37
2022-11-06T05:13:48.969Z,958.47
2022-11-06T05:28:51.019Z,958.54
2022-11-06T05:43:52.927Z,958.55
2022-11-06T05:58:54.934Z,958.6
2022-11-06T06:13:56.856Z,958.69
2022-11-06T06:28:58.854Z,958.82
2022-11-06T06:44:00.823Z,958.98
2022-11-06T06:59:02.784Z,959.17
2022-11-06T07:14:04.685Z,959.34
2022-11-06T07:29:06.718Z,959.41
2022-11-06T07:44:08.648Z,959.64
2022-11-06T07:59:10.579Z,959.9
2022-11-06T08:14:12.551Z,960.28
2022-11-06T08:29:14.489Z,960.34
2022-11-06T08:44:16.415Z,960.5
2022-11-06T08:59:18.339Z,960.56
2022-11-06T09:14:20.255Z,960.7
2022-11-06T09:29:22.227Z,960.86
2022-11-06T09:44:24.114Z,961.08
2022-11-06T09:59:26.135Z,961.12
2022-11-06T10:14:28.055Z,961.04
2022-11-06T10:29:30.088Z,961.03
2022-11-06T10:44:32.066Z,961.01
2022-11-06T10:59:33.994Z,960.9
2022-11-06T11:14:35.877Z,961.03
2022-11-06T11:29:37.849Z,961.14
2022-11-06T11:44:39.830Z,961.26
2022-11-06T11:59:41.770Z,961.38
2022-11-06T12:14:43.660Z,961.24
2022-11-06T12:29:45.583Z,961.21
2022-11-06T12:44:47.645Z,961.46
2022-11-06T12:59:49.548Z,961.42
2022-11-06T13:14:51.496Z,961.27
2022-11-06T13:29:53.438Z,961.14
2022-11-06T13:44:55.399Z,960.98
2022-11-06T13:59:57.310Z,960.86
2022-11-06T14:14:59.272Z,960.75
2022-11-06T14:30:01.370Z,960.61
2022-11-06T14:45:03.377Z,960.67
2022-11-06T15:00:05.278Z,960.64
2022-11-06T15:15:07.268Z,960.52
2022-11-06T15:30:09.107Z,960.57
2022-11-06T15:45:11.060Z,960.64
2022-11-06T16:00:12.963Z,960.69
2022-11-06T16:15:14.862Z,960.61
2022-11-06T16:30:20.692Z,960.43
2022-11-06T16:45:25.772Z,960.2
2022-11-06T17:00:27.673Z,960.14
2022-11-06T17:15:29.578Z,959.92
2022-11-06T17:30:31.475Z,959.82
2022-11-06T17:45:33.391Z,959.64
2022-11-06T18:00:35.269Z,959.42
2022-11-06T18:15:37.242Z,959.46
2022-11-06T18:30:39.149Z,959.25
2022-11-06T18:45:41.103Z,959.02
2022-11-06T19:00:43.047Z,958.74
2022-11-06T19:15:44.933Z,958.45
2022-11-06T19:30:46.866Z,958.25
2022-11-06T19:45:48.821Z,958.05
2022-11-06T20:00:50.752Z,957.7
2022-11-06T20:15:52.805Z,957.37
2022-11-06T20:30:54.808Z,957.14
2022-11-06T20:45:56.699Z,956.87
2022-11-06T21:00:58.641Z,956.61
2022-11-06T21:16:00.558Z,956.58
2022-11-06T21:31:02.508Z,956.3
2022-11-06T21:46:04.423Z,956.12
2022-11-06T22:01:06.377Z,955.98
2022-11-06T22:16:08.350Z,955.84
2022-11-06T22:31:10.253Z,955.55
2022-11-06T22:46:12.355Z,955.43
2022-11-06T23:01:14.456Z,955.23
2022-11-06T23:16:16.396Z,955.08
2022-11-06T23:31:18.379Z,955.06
2022-11-06T23:46:20.255Z,955.07
